createdAt,value
2018-05-14T00:00:24.289Z,1008.96
2018-05-14T00:01:24.288Z,1008.94
2018-05-14T00:02:24.295Z,1008.94
2018-05-14T00:03:24.291Z,1008.99
2018-05-14T00:04:24.290Z,1008.96
2018-05-14T00:05:24.292Z,1008.94
2018-05-14T00:06:24.292Z,1008.96
2018-05-14T00:07:24.291Z,1008.98
2018-05-14T00:08:24.294Z,1008.99
2018-05-14T00:09:24.293Z,1008.99
2018-05-14T00:10:24.296Z,1009.00
2018-05-14T00:11:24.298Z,1008.97
2018-05-14T00:12:24.317Z,1008.94
2018-05-14T00:13:24.295Z,1008.99
2018-05-14T00:14:24.305Z,1008.96
2018-05-14T00:15:24.301Z,1008.94
2018-05-14T00:16:24.300Z,1008.93
2018-05-14T00:17:24.300Z,1008.90
2018-05-14T00:18:24.297Z,1008.91
2018-05-14T00:19:24.303Z,1008.92
2018-05-14T00:20:24.299Z,1008.89
2018-05-14T00:21:24.301Z,1008.90
2018-05-14T00:22:24.298Z,1008.85
2018-05-14T00:23:24.297Z,1008.85
2018-05-14T00:24:24.303Z,1008.88
2018-05-14T00:25:24.295Z,1008.87
2018-05-14T00:26:24.300Z,1008.85
2018-05-14T00:27:24.299Z,1008.85
2018-05-14T00:28:24.301Z,1008.87
2018-05-14T00:29:24.299Z,1008.89
2018-05-14T00:30:24.301Z,1008.87
2018-05-14T00:31:24.304Z,1008.91
2018-05-14T00:32:24.303Z,1008.88
2018-05-14T00:33:24.301Z,1008.91
2018-05-14T00:34:24.302Z,1008.90
2018-05-14T00:35:24.303Z,1008.92
2018-05-14T00:36:24.301Z,1008.93
2018-05-14T00:37:24.305Z,1008.94
2018-05-14T00:38:24.302Z,1008.95
2018-05-14T00:39:24.302Z,1008.94
2018-05-14T00:40:24.302Z,1008.93
2018-05-14T00:41:24.304Z,1008.93
2018-05-14T00:42:24.301Z,1008.93
2018-05-14T00:43:24.307Z,1008.92
2018-05-14T00:44:24.301Z,1008.94
2018-05-14T00:45:24.303Z,1008.95
2018-05-14T00:46:24.303Z,1009.02
2018-05-14T00:47:24.305Z,1008.99
2018-05-14T00:48:24.304Z,1009.01
2018-05-14T00:49:24.399Z,1009.05
2018-05-14T00:50:24.306Z,1009.05
2018-05-14T00:51:24.302Z,1008.99
2018-05-14T00:52:24.302Z,1009.03
2018-05-14T00:53:24.302Z,1009.04
2018-05-14T00:54:24.308Z,1008.99
2018-05-14T00:55:24.303Z,1008.98
2018-05-14T00:56:24.298Z,1008.96
2018-05-14T00:57:24.301Z,1008.94
2018-05-14T00:58:24.303Z,1009.02
2018-05-14T00:59:24.303Z,1009.03
2018-05-14T01:00:24.305Z,1009.04
2018-05-14T01:01:24.301Z,1008.99
2018-05-14T01:02:24.307Z,1009.01
2018-05-14T01:03:24.303Z,1009.00
2018-05-14T01:04:24.303Z,1009.01
2018-05-14T01:05:24.301Z,1009.00
2018-05-14T01:06:24.302Z,1009.01
2018-05-14T01:07:24.304Z,1009.00
2018-05-14T01:08:24.306Z,1009.02
2018-05-14T01:09:24.300Z,1009.00
2018-05-14T01:10:24.307Z,1009.01
2018-05-14T01:11:24.298Z,1008.99
2018-05-14T01:12:24.299Z,1008.97
2018-05-14T01:13:24.300Z,1008.97
2018-05-14T01:14:24.301Z,1008.97
2018-05-14T01:15:24.300Z,1008.97
2018-05-14T01:16:24.299Z,1008.93
2018-05-14T01:17:24.300Z,1008.94
2018-05-14T01:18:24.303Z,1008.95
2018-05-14T01:19:24.298Z,1008.94
2018-05-14T01:20:24.298Z,1008.90
2018-05-14T01:21:24.298Z,1008.91
2018-05-14T01:22:24.299Z,1008.92
2018-05-14T01:23:24.298Z,1008.92
2018-05-14T01:24:24.306Z,1008.88
2018-05-14T01:25:24.296Z,1008.91
2018-05-14T01:26:24.303Z,1008.90
2018-05-14T01:27:24.296Z,1008.92
2018-05-14T01:28:24.297Z,1008.88
2018-05-14T01:29:24.294Z,1008.91
2018-05-14T01:30:24.291Z,1008.89
2018-05-14T01:31:24.295Z,1008.93
2018-05-14T01:32:24.298Z,1008.92
2018-05-14T01:33:24.293Z,1008.93
2018-05-14T01:34:24.296Z,1008.91
2018-05-14T01:35:24.311Z,1008.93
2018-05-14T01:36:24.291Z,1008.92
2018-05-14T01:37:24.292Z,1008.89
2018-05-14T01:38:24.293Z,1008.92
2018-05-14T01:39:24.291Z,1008.91
2018-05-14T01:40:24.309Z,1008.91
2018-05-14T01:41:24.288Z,1008.88
2018-05-14T01:42:24.289Z,1008.94
2018-05-14T01:43:24.289Z,1008.90
2018-05-14T01:44:24.289Z,1008.90
2018-05-14T01:45:24.287Z,1008.90
2018-05-14T01:46:24.291Z,1008.87
2018-05-14T01:47:24.286Z,1008.86
2018-05-14T01:48:24.287Z,1008.89
2018-05-14T01:49:24.286Z,1008.88
2018-05-14T01:50:24.285Z,1008.87
2018-05-14T01:51:24.284Z,1008.83
2018-05-14T01:52:24.282Z,1008.86
2018-05-14T01:53:24.282Z,1008.86
2018-05-14T01:54:24.285Z,1008.87
2018-05-14T01:55:24.280Z,1008.83
2018-05-14T01:56:24.286Z,1008.85
2018-05-14T01:57:24.279Z,1008.87
2018-05-14T01:58:24.279Z,1008.85
2018-05-14T01:59:24.280Z,1008.86
2018-05-14T02:00:24.279Z,1008.83
2018-05-14T02:01:24.279Z,1008.88
2018-05-14T02:02:24.277Z,1008.88
2018-05-14T02:03:24.279Z,1008.93
2018-05-14T02:04:24.275Z,1008.92
2018-05-14T02:05:24.277Z,1008.90
2018-05-14T02:06:24.273Z,1008.94
2018-05-14T02:07:24.273Z,1008.93
2018-05-14T02:08:24.268Z,1008.94
2018-05-14T02:09:24.271Z,1008.93
2018-05-14T02:10:24.274Z,1008.92
2018-05-14T02:11:24.277Z,1008.91
2018-05-14T02:12:24.270Z,1008.93
2018-05-14T02:13:24.271Z,1008.91
2018-05-14T02:14:24.272Z,1008.94
2018-05-14T02:15:24.270Z,1008.98
2018-05-14T02:16:24.267Z,1008.94
2018-05-14T02:17:24.348Z,1008.96
2018-05-14T02:18:24.266Z,1008.97
2018-05-14T02:19:24.266Z,1008.91
2018-05-14T02:20:24.260Z,1008.98
2018-05-14T02:21:24.263Z,1008.95
2018-05-14T02:22:24.264Z,1008.98
2018-05-14T02:23:24.262Z,1009.00
2018-05-14T02:24:24.261Z,1008.96
2018-05-14T02:25:24.259Z,1008.98
2018-05-14T02:26:24.257Z,1008.99
2018-05-14T02:27:24.260Z,1008.96
2018-05-14T02:28:24.258Z,1008.95
2018-05-14T02:29:24.265Z,1008.90
2018-05-14T02:30:24.258Z,1008.92
2018-05-14T02:31:24.255Z,1008.92
2018-05-14T02:32:24.254Z,1008.93
2018-05-14T02:33:24.261Z,1008.92
2018-05-14T02:34:24.253Z,1008.91
2018-05-14T02:35:24.251Z,1008.89
2018-05-14T02:36:24.251Z,1008.90
2018-05-14T02:37:24.253Z,1008.87
2018-05-14T02:38:24.250Z,1008.86
2018-05-14T02:39:24.255Z,1008.84
2018-05-14T02:40:24.249Z,1008.85
2018-05-14T02:41:24.259Z,1008.86
2018-05-14T02:42:24.247Z,1008.87
2018-05-14T02:43:24.247Z,1008.85
2018-05-14T02:44:24.245Z,1008.92
2018-05-14T02:45:24.244Z,1008.88
2018-05-14T02:46:24.242Z,1008.90
2018-05-14T02:47:24.246Z,1008.93
2018-05-14T02:48:24.240Z,1008.91
2018-05-14T02:49:24.241Z,1008.90
2018-05-14T02:50:24.240Z,1008.90
2018-05-14T02:51:24.239Z,1008.92
2018-05-14T02:52:24.241Z,1008.95
2018-05-14T02:53:24.238Z,1008.92
2018-05-14T02:54:24.235Z,1008.90
2018-05-14T02:55:24.235Z,1008.91
2018-05-14T02:56:24.234Z,1008.91
2018-05-14T02:57:24.244Z,1008.91
2018-05-14T02:58:24.308Z,1008.94
2018-05-14T02:59:24.230Z,1008.92
2018-05-14T03:00:24.233Z,1008.94
2018-05-14T03:01:24.233Z,1008.95
2018-05-14T03:02:24.232Z,1008.98
2018-05-14T03:03:24.225Z,1008.98
2018-05-14T03:04:24.226Z,1008.95
2018-05-14T03:05:24.225Z,1008.91
2018-05-14T03:06:24.226Z,1008.92
2018-05-14T03:07:24.224Z,1008.90
2018-05-14T03:08:24.227Z,1008.89
2018-05-14T03:09:24.224Z,1008.94
2018-05-14T03:10:24.222Z,1008.90
2018-05-14T03:11:24.229Z,1008.92
2018-05-14T03:12:24.217Z,1008.94
2018-05-14T03:13:24.220Z,1008.90
2018-05-14T03:14:24.217Z,1008.91
2018-05-14T03:15:24.219Z,1008.97
2018-05-14T03:16:24.211Z,1008.95
2018-05-14T03:17:24.213Z,1008.97
2018-05-14T03:18:24.215Z,1008.97
2018-05-14T03:19:24.208Z,1009.00
2018-05-14T03:20:24.213Z,1008.99
2018-05-14T03:21:24.212Z,1009.05
2018-05-14T03:22:24.208Z,1009.03
2018-05-14T03:23:24.207Z,1009.01
2018-05-14T03:24:24.207Z,1008.98
2018-05-14T03:25:24.206Z,1008.99
2018-05-14T03:26:24.204Z,1009.03
2018-05-14T03:27:24.204Z,1009.05
2018-05-14T03:28:24.201Z,1009.03
2018-05-14T03:29:24.202Z,1009.08
2018-05-14T03:30:24.217Z,1009.09
2018-05-14T03:31:24.198Z,1009.07
2018-05-14T03:32:24.201Z,1009.09
2018-05-14T03:33:24.196Z,1009.11
2018-05-14T03:34:24.204Z,1009.11
2018-05-14T03:35:24.194Z,1009.10
2018-05-14T03:36:24.195Z,1009.11
2018-05-14T03:37:24.195Z,1009.12
2018-05-14T03:38:24.194Z,1009.14
2018-05-14T03:39:24.192Z,1009.13
2018-05-14T03:40:24.192Z,1009.10
2018-05-14T03:41:24.188Z,1009.09
2018-05-14T03:42:24.187Z,1009.06
2018-05-14T03:43:24.185Z,1009.05
2018-05-14T03:44:24.209Z,1009.09
2018-05-14T03:45:24.185Z,1009.14
2018-05-14T03:46:24.185Z,1009.13
2018-05-14T03:47:24.186Z,1009.11
2018-05-14T03:48:24.181Z,1009.14
2018-05-14T03:49:24.179Z,1009.20
2018-05-14T03:50:24.180Z,1009.18
2018-05-14T03:51:24.178Z,1009.17
2018-05-14T03:52:24.177Z,1009.17
2018-05-14T03:53:24.176Z,1009.22
2018-05-14T03:54:24.176Z,1009.20
2018-05-14T03:55:24.179Z,1009.16
2018-05-14T03:56:24.174Z,1009.20
2018-05-14T03:57:24.171Z,1009.25
2018-05-14T03:58:24.170Z,1009.25
2018-05-14T03:59:24.170Z,1009.32
2018-05-14T04:00:24.178Z,1009.34
2018-05-14T04:01:24.177Z,1009.28
2018-05-14T04:02:24.215Z,1009.31
2018-05-14T04:03:24.166Z,1009.27
2018-05-14T04:04:24.164Z,1009.31
2018-05-14T04:05:24.163Z,1009.28
2018-05-14T04:06:24.169Z,1009.33
2018-05-14T04:07:24.164Z,1009.30
2018-05-14T04:08:24.167Z,1009.32
2018-05-14T04:09:24.162Z,1009.37
2018-05-14T04:10:24.162Z,1009.38
2018-05-14T04:11:24.160Z,1009.37
2018-05-14T04:12:24.158Z,1009.38
2018-05-14T04:13:24.159Z,1009.37
2018-05-14T04:14:24.157Z,1009.36
2018-05-14T04:15:24.161Z,1009.38
2018-05-14T04:16:24.171Z,1009.38
2018-05-14T04:17:24.158Z,1009.37
2018-05-14T04:18:24.160Z,1009.34
2018-05-14T04:19:24.155Z,1009.36
2018-05-14T04:20:24.152Z,1009.36
2018-05-14T04:21:24.153Z,1009.35
2018-05-14T04:22:24.151Z,1009.41
2018-05-14T04:23:24.148Z,1009.46
2018-05-14T04:24:24.226Z,1009.39
2018-05-14T04:25:24.148Z,1009.42
2018-05-14T04:26:24.155Z,1009.40
2018-05-14T04:27:24.149Z,1009.42
2018-05-14T04:28:24.155Z,1009.43
2018-05-14T04:29:24.148Z,1009.49
2018-05-14T04:30:24.148Z,1009.49
2018-05-14T04:31:24.145Z,1009.49
2018-05-14T04:32:24.145Z,1009.49
2018-05-14T04:33:24.144Z,1009.55
2018-05-14T04:34:24.142Z,1009.58
2018-05-14T04:35:24.147Z,1009.56
2018-05-14T04:36:24.154Z,1009.55
2018-05-14T04:37:24.140Z,1009.57
2018-05-14T04:38:24.142Z,1009.57
2018-05-14T04:39:24.143Z,1009.55
2018-05-14T04:40:24.141Z,1009.61
2018-05-14T04:41:24.143Z,1009.63
2018-05-14T04:42:24.148Z,1009.62
2018-05-14T04:43:24.140Z,1009.64
2018-05-14T04:44:24.142Z,1009.59
2018-05-14T04:45:24.139Z,1009.64
2018-05-14T04:46:24.141Z,1009.66
2018-05-14T04:47:24.142Z,1009.74
2018-05-14T04:48:24.141Z,1009.73
2018-05-14T04:49:24.142Z,1009.75
2018-05-14T04:50:24.144Z,1009.70
2018-05-14T04:51:24.143Z,1009.70
2018-05-14T04:52:24.147Z,1009.70
2018-05-14T04:53:24.142Z,1009.72
2018-05-14T04:54:24.144Z,1009.69
2018-05-14T04:55:24.141Z,1009.71
2018-05-14T04:56:24.145Z,1009.72
2018-05-14T04:57:24.150Z,1009.73
2018-05-14T04:58:24.144Z,1009.73
2018-05-14T04:59:24.143Z,1009.71
2018-05-14T05:00:24.144Z,1009.67
2018-05-14T05:01:24.156Z,1009.69
2018-05-14T05:02:24.147Z,1009.72
2018-05-14T05:03:24.147Z,1009.77
2018-05-14T05:04:24.146Z,1009.75
2018-05-14T05:05:24.150Z,1009.79
2018-05-14T05:06:24.153Z,1009.75
2018-05-14T05:07:24.150Z,1009.79
2018-05-14T05:08:24.147Z,1009.81
2018-05-14T05:09:24.151Z,1009.79
2018-05-14T05:10:24.244Z,1009.81
2018-05-14T05:11:24.214Z,1009.82
2018-05-14T05:12:24.160Z,1009.79
2018-05-14T05:13:24.157Z,1009.79
2018-05-14T05:14:24.158Z,1009.81
2018-05-14T05:15:24.164Z,1009.79
2018-05-14T05:16:24.171Z,1009.81
2018-05-14T05:17:24.163Z,1009.79
2018-05-14T05:18:24.164Z,1009.78
2018-05-14T05:19:24.169Z,1009.75
2018-05-14T05:20:24.166Z,1009.75
2018-05-14T05:21:24.167Z,1009.77
2018-05-14T05:22:24.166Z,1009.77
2018-05-14T05:23:24.172Z,1009.82
2018-05-14T05:24:24.169Z,1009.83
2018-05-14T05:25:24.477Z,1009.82
2018-05-14T05:26:24.316Z,1009.83
2018-05-14T05:27:24.190Z,1009.87
2018-05-14T05:28:24.261Z,1009.83
2018-05-14T05:29:24.179Z,1009.85
2018-05-14T05:30:24.181Z,1009.89
2018-05-14T05:31:24.183Z,1009.90
2018-05-14T05:32:24.184Z,1009.86
2018-05-14T05:33:24.184Z,1009.81
2018-05-14T05:34:24.223Z,1009.88
2018-05-14T05:35:24.189Z,1009.83
2018-05-14T05:36:24.192Z,1009.85
2018-05-14T05:37:24.196Z,1009.91
2018-05-14T05:38:24.195Z,1009.91
2018-05-14T05:39:24.203Z,1009.91
2018-05-14T05:40:24.198Z,1009.96
2018-05-14T05:41:24.201Z,1009.95
2018-05-14T05:42:24.203Z,1009.96
2018-05-14T05:43:24.203Z,1009.89
2018-05-14T05:44:24.203Z,1009.99
2018-05-14T05:45:24.304Z,1009.95
2018-05-14T05:46:24.211Z,1009.97
2018-05-14T05:47:24.216Z,1009.93
2018-05-14T05:48:24.214Z,1009.96
2018-05-14T05:49:24.217Z,1009.90
2018-05-14T05:50:24.220Z,1009.94
2018-05-14T05:51:24.220Z,1009.96
2018-05-14T05:52:24.324Z,1009.95
2018-05-14T05:53:24.227Z,1009.98
2018-05-14T05:54:24.229Z,1009.91
2018-05-14T05:55:24.232Z,1009.91
2018-05-14T05:56:24.236Z,1009.91
2018-05-14T05:57:24.238Z,1009.95
2018-05-14T05:58:24.251Z,1010.01
2018-05-14T05:59:24.239Z,1009.92
2018-05-14T06:00:24.243Z,1009.95
2018-05-14T06:01:24.282Z,1009.99
2018-05-14T06:02:24.250Z,1009.98
2018-05-14T06:03:24.250Z,1010.02
2018-05-14T06:04:24.252Z,1010.04
2018-05-14T06:05:24.255Z,1010.04
2018-05-14T06:06:24.259Z,1010.03
2018-05-14T06:07:24.259Z,1009.95
2018-05-14T06:08:24.310Z,1009.96
2018-05-14T06:09:24.348Z,1009.94
2018-05-14T06:10:24.272Z,1009.97
2018-05-14T06:11:24.264Z,1009.97
2018-05-14T06:12:24.272Z,1009.98
2018-05-14T06:13:24.278Z,1009.99
2018-05-14T06:14:24.278Z,1009.97
2018-05-14T06:15:24.288Z,1010.02
2018-05-14T06:16:24.285Z,1010.02
2018-05-14T06:17:24.289Z,1010.02
2018-05-14T06:18:24.288Z,1010.04
2018-05-14T06:19:24.290Z,1010.03
2018-05-14T06:20:24.440Z,1010.07
2018-05-14T06:21:24.314Z,1010.06
2018-05-14T06:22:24.386Z,1010.09
2018-05-14T06:23:24.303Z,1010.05
2018-05-14T06:24:24.307Z,1010.02
2018-05-14T06:25:24.313Z,1010.08
2018-05-14T06:26:24.323Z,1010.00
2018-05-14T06:27:24.317Z,1010.02
2018-05-14T06:28:24.321Z,1010.03
2018-05-14T06:29:24.324Z,1010.07
2018-05-14T06:30:24.329Z,1010.04
2018-05-14T06:31:24.326Z,1010.02
2018-05-14T06:32:24.336Z,1010.01
2018-05-14T06:33:24.340Z,1010.05
2018-05-14T06:34:24.344Z,1010.04
2018-05-14T06:35:24.413Z,1010.05
2018-05-14T06:36:24.357Z,1010.05
2018-05-14T06:37:24.363Z,1010.05
2018-05-14T06:38:24.360Z,1010.07
2018-05-14T06:39:24.363Z,1010.08
2018-05-14T06:40:24.373Z,1010.06
2018-05-14T06:41:24.373Z,1010.06
2018-05-14T06:42:24.378Z,1010.05
2018-05-14T06:43:24.383Z,1010.01
2018-05-14T06:44:24.454Z,1009.98
2018-05-14T06:45:24.393Z,1010.04
2018-05-14T06:46:24.396Z,1010.04
2018-05-14T06:47:24.398Z,1010.10
2018-05-14T06:48:24.405Z,1010.06
2018-05-14T06:49:24.410Z,1010.13
2018-05-14T06:50:24.417Z,1010.13
2018-05-14T06:51:24.427Z,1010.05
2018-05-14T06:52:24.423Z,1010.08
2018-05-14T06:53:24.428Z,1010.05
2018-05-14T06:54:24.433Z,1010.08
2018-05-14T06:55:24.446Z,1010.08
2018-05-14T06:56:24.445Z,1010.07
2018-05-14T06:57:24.451Z,1010.13
2018-05-14T06:58:24.456Z,1010.13
2018-05-14T06:59:24.511Z,1010.01
2018-05-14T07:00:24.462Z,1010.10
2018-05-14T07:01:24.475Z,1010.11
2018-05-14T07:02:24.478Z,1010.09
2018-05-14T07:03:24.482Z,1010.04
2018-05-14T07:04:24.489Z,1010.11
2018-05-14T07:05:24.496Z,1010.09
2018-05-14T07:06:24.500Z,1010.15
2018-05-14T07:07:24.511Z,1010.13
2018-05-14T07:08:24.511Z,1010.13
2018-05-14T07:09:24.554Z,1010.13
2018-05-14T07:10:24.526Z,1010.18
2018-05-14T07:11:24.569Z,1010.20
2018-05-14T07:12:24.534Z,1010.25
2018-05-14T07:13:24.540Z,1010.25
2018-05-14T07:14:24.549Z,1010.29
2018-05-14T07:15:24.552Z,1010.27
2018-05-14T07:16:24.561Z,1010.33
2018-05-14T07:17:24.573Z,1010.47
2018-05-14T07:18:24.576Z,1010.39
2018-05-14T07:19:24.664Z,1010.40
2018-05-14T07:20:24.590Z,1010.35
2018-05-14T07:21:24.592Z,1010.36
2018-05-14T07:22:24.596Z,1010.45
2018-05-14T07:23:24.599Z,1010.34
2018-05-14T07:24:24.606Z,1010.34
2018-05-14T07:25:24.625Z,1010.32
2018-05-14T07:26:24.621Z,1010.32
2018-05-14T07:27:24.628Z,1010.31
2018-05-14T07:28:24.638Z,1010.36
2018-05-14T07:29:24.637Z,1010.32
2018-05-14T07:30:24.647Z,1010.32
2018-05-14T07:31:24.650Z,1010.31
2018-05-14T07:32:24.658Z,1010.25
2018-05-14T07:33:24.665Z,1010.27
2018-05-14T07:34:24.671Z,1010.36
2018-05-14T07:35:24.676Z,1010.34
2018-05-14T07:36:24.685Z,1010.36
2018-05-14T07:37:24.690Z,1010.37
2018-05-14T07:38:24.698Z,1010.39
2018-05-14T07:39:24.703Z,1010.40
2018-05-14T07:40:24.712Z,1010.40
2018-05-14T07:41:24.717Z,1010.42
2018-05-14T07:42:24.722Z,1010.38
2018-05-14T07:43:24.728Z,1010.39
2018-05-14T07:44:24.736Z,1010.43
2018-05-14T07:45:24.742Z,1010.38
2018-05-14T07:46:24.752Z,1010.44
2018-05-14T07:47:24.756Z,1010.52
2018-05-14T07:48:24.763Z,1010.51
2018-05-14T07:49:24.771Z,1010.46
2018-05-14T07:50:24.777Z,1010.54
2018-05-14T07:51:24.784Z,1010.47
2018-05-14T07:52:24.790Z,1010.43
2018-05-14T07:53:24.799Z,1010.42
2018-05-14T07:54:24.834Z,1010.42
2018-05-14T07:55:24.812Z,1010.45
2018-05-14T07:56:24.819Z,1010.46
2018-05-14T07:57:24.826Z,1010.46
2018-05-14T07:58:24.838Z,1010.48
2018-05-14T07:59:24.847Z,1010.47
2018-05-14T08:00:24.891Z,1010.45
2018-05-14T08:01:24.857Z,1010.49
2018-05-14T08:02:24.863Z,1010.51
2018-05-14T08:03:24.870Z,1010.49
2018-05-14T08:04:24.878Z,1010.49
2018-05-14T08:05:24.885Z,1010.54
2018-05-14T08:06:24.894Z,1010.53
2018-05-14T08:07:24.902Z,1010.47
2018-05-14T08:08:24.908Z,1010.55
2018-05-14T08:09:24.918Z,1010.59
2018-05-14T08:10:24.924Z,1010.59
2018-05-14T08:11:24.932Z,1010.62
2018-05-14T08:12:24.939Z,1010.54
2018-05-14T08:13:24.948Z,1010.59
2018-05-14T08:14:24.958Z,1010.64
2018-05-14T08:15:24.965Z,1010.57
2018-05-14T08:16:24.974Z,1010.67
2018-05-14T08:17:24.983Z,1010.73
2018-05-14T08:18:24.987Z,1010.73
2018-05-14T08:19:24.995Z,1010.72
2018-05-14T08:20:25.004Z,1010.70
2018-05-14T08:21:25.012Z,1010.83
2018-05-14T08:22:25.022Z,1010.86
2018-05-14T08:23:25.070Z,1010.73
2018-05-14T08:24:25.036Z,1010.74
2018-05-14T08:25:25.044Z,1010.78
2018-05-14T08:26:25.053Z,1010.76
2018-05-14T08:27:25.153Z,1010.70
2018-05-14T08:28:25.069Z,1010.75
2018-05-14T08:29:25.077Z,1010.79
2018-05-14T08:30:25.088Z,1010.82
2018-05-14T08:31:25.113Z,1010.85
2018-05-14T08:32:25.101Z,1010.79
2018-05-14T08:33:25.109Z,1010.86
2018-05-14T08:34:25.120Z,1010.85
2018-05-14T08:35:25.124Z,1010.79
2018-05-14T08:36:25.133Z,1010.83
2018-05-14T08:37:25.140Z,1010.83
2018-05-14T08:38:25.150Z,1010.85
2018-05-14T08:39:25.168Z,1010.87
2018-05-14T08:40:25.164Z,1010.83
2018-05-14T08:41:25.172Z,1010.83
2018-05-14T08:42:25.202Z,1010.98
2018-05-14T08:43:25.186Z,1010.91
2018-05-14T08:44:25.196Z,1010.91
2018-05-14T08:45:25.208Z,1010.95
2018-05-14T08:46:25.214Z,1010.92
2018-05-14T08:47:25.221Z,1010.95
2018-05-14T08:48:25.231Z,1010.90
2018-05-14T08:49:25.238Z,1010.99
2018-05-14T08:50:25.245Z,1011.00
2018-05-14T08:51:25.253Z,1010.95
2018-05-14T08:52:25.260Z,1011.02
2018-05-14T08:53:25.454Z,1010.99
2018-05-14T08:54:25.433Z,1010.91
2018-05-14T08:55:25.287Z,1010.87
2018-05-14T08:56:25.290Z,1010.82
2018-05-14T08:57:25.306Z,1010.75
2018-05-14T08:58:25.312Z,1010.76
2018-05-14T08:59:25.373Z,1010.83
2018-05-14T09:00:25.327Z,1010.74
2018-05-14T09:01:25.334Z,1010.77
2018-05-14T09:02:25.344Z,1010.79
2018-05-14T09:03:25.354Z,1010.85
2018-05-14T09:04:25.357Z,1010.80
2018-05-14T09:05:25.362Z,1010.87
2018-05-14T09:06:25.374Z,1010.83
2018-05-14T09:07:25.374Z,1010.85
2018-05-14T09:08:25.377Z,1010.95
2018-05-14T09:09:25.386Z,1010.84
2018-05-14T09:10:25.389Z,1010.84
2018-05-14T09:11:25.394Z,1010.85
2018-05-14T09:12:25.401Z,1010.82
2018-05-14T09:13:25.410Z,1010.76
2018-05-14T09:14:25.420Z,1010.79
2018-05-14T09:15:25.419Z,1010.76
2018-05-14T09:16:25.425Z,1010.85
2018-05-14T09:17:25.424Z,1010.81
2018-05-14T09:18:25.431Z,1010.79
2018-05-14T09:19:25.487Z,1010.85
2018-05-14T09:20:25.438Z,1010.88
2018-05-14T09:21:25.444Z,1010.81
2018-05-14T09:22:25.465Z,1010.79
2018-05-14T09:23:25.449Z,1010.69
2018-05-14T09:24:25.481Z,1010.81
2018-05-14T09:25:25.538Z,1010.73
2018-05-14T09:26:25.463Z,1010.75
2018-05-14T09:27:25.467Z,1010.77
2018-05-14T09:28:25.476Z,1010.77
2018-05-14T09:29:25.494Z,1010.80
2018-05-14T09:30:25.478Z,1010.83
2018-05-14T09:31:25.582Z,1010.83
2018-05-14T09:32:25.485Z,1010.87
2018-05-14T09:33:25.491Z,1010.79
2018-05-14T09:34:25.493Z,1010.81
2018-05-14T09:35:25.496Z,1010.91
2018-05-14T09:36:25.499Z,1010.81
2018-05-14T09:37:25.505Z,1010.80
2018-05-14T09:38:25.510Z,1010.75
2018-05-14T09:39:25.511Z,1010.73
2018-05-14T09:40:25.512Z,1010.72
2018-05-14T09:41:25.519Z,1010.71
2018-05-14T09:42:25.523Z,1010.67
2018-05-14T09:43:25.524Z,1010.78
2018-05-14T09:44:25.629Z,1010.68
2018-05-14T09:45:25.556Z,1010.73
2018-05-14T09:46:25.535Z,1010.74
2018-05-14T09:47:25.539Z,1010.64
2018-05-14T09:48:25.550Z,1010.62
2018-05-14T09:49:25.546Z,1010.47
2018-05-14T09:50:25.612Z,1010.66
2018-05-14T09:51:25.553Z,1010.68
2018-05-14T09:52:25.556Z,1010.59
2018-05-14T09:53:25.559Z,1010.66
2018-05-14T09:54:25.577Z,1010.63
2018-05-14T09:55:25.583Z,1010.64
2018-05-14T09:56:25.571Z,1010.62
2018-05-14T09:57:25.635Z,1010.61
2018-05-14T09:58:25.585Z,1010.70
2018-05-14T09:59:25.586Z,1010.66
2018-05-14T10:00:25.639Z,1010.65
2018-05-14T10:01:25.653Z,1010.64
2018-05-14T10:02:25.592Z,1010.65
2018-05-14T10:03:25.694Z,1010.65
2018-05-14T10:04:25.598Z,1010.54
2018-05-14T10:05:25.607Z,1010.71
2018-05-14T10:06:25.608Z,1010.62
2018-05-14T10:07:25.614Z,1010.67
2018-05-14T10:08:25.615Z,1010.67
2018-05-14T10:09:25.618Z,1010.63
2018-05-14T10:10:25.622Z,1010.60
2018-05-14T10:11:25.628Z,1010.65
2018-05-14T10:12:25.629Z,1010.67
2018-05-14T10:13:25.696Z,1010.59
2018-05-14T10:14:25.642Z,1010.61
2018-05-14T10:15:25.640Z,1010.63
2018-05-14T10:16:25.642Z,1010.61
2018-05-14T10:17:25.650Z,1010.65
2018-05-14T10:18:25.649Z,1010.70
2018-05-14T10:19:25.655Z,1010.63
2018-05-14T10:20:25.655Z,1010.67
2018-05-14T10:21:25.659Z,1010.51
2018-05-14T10:22:25.661Z,1010.53
2018-05-14T10:23:25.667Z,1010.57
2018-05-14T10:24:25.668Z,1010.50
2018-05-14T10:25:25.676Z,1010.61
2018-05-14T10:26:25.678Z,1010.60
2018-05-14T10:27:25.679Z,1010.59
2018-05-14T10:28:25.687Z,1010.63
2018-05-14T10:29:25.685Z,1010.58
2018-05-14T10:30:25.685Z,1010.54
2018-05-14T10:31:25.692Z,1010.64
2018-05-14T10:32:25.695Z,1010.67
2018-05-14T10:33:25.697Z,1010.60
2018-05-14T10:34:25.704Z,1010.58
2018-05-14T10:35:25.706Z,1010.69
2018-05-14T10:36:25.710Z,1010.70
2018-05-14T10:37:25.713Z,1010.65
2018-05-14T10:38:25.718Z,1010.63
2018-05-14T10:39:25.722Z,1010.67
2018-05-14T10:40:25.725Z,1010.61
2018-05-14T10:41:25.724Z,1010.58
2018-05-14T10:42:25.731Z,1010.69
2018-05-14T10:43:25.736Z,1010.64
2018-05-14T10:44:25.736Z,1010.61
2018-05-14T10:45:25.738Z,1010.61
2018-05-14T10:46:25.741Z,1010.54
2018-05-14T10:47:25.747Z,1010.80
2018-05-14T10:48:25.754Z,1010.59
2018-05-14T10:49:25.756Z,1010.63
2018-05-14T10:50:25.767Z,1010.79
2018-05-14T10:51:25.755Z,1010.67
2018-05-14T10:52:25.764Z,1010.54
2018-05-14T10:53:25.765Z,1010.67
2018-05-14T10:54:25.769Z,1010.64
2018-05-14T10:55:25.765Z,1010.59
2018-05-14T10:56:25.774Z,1010.63
2018-05-14T10:57:25.778Z,1010.64
2018-05-14T10:58:25.782Z,1010.68
2018-05-14T10:59:25.787Z,1010.81
2018-05-14T11:00:25.791Z,1010.75
2018-05-14T11:01:25.789Z,1010.64
2018-05-14T11:02:25.794Z,1010.64
2018-05-14T11:03:25.799Z,1010.62
2018-05-14T11:04:25.801Z,1010.69
2018-05-14T11:05:25.892Z,1010.71
2018-05-14T11:06:25.812Z,1010.73
2018-05-14T11:07:25.810Z,1010.75
2018-05-14T11:08:25.815Z,1010.69
2018-05-14T11:09:25.823Z,1010.68
2018-05-14T11:10:25.847Z,1010.73
2018-05-14T11:11:25.825Z,1010.77
2018-05-14T11:12:25.828Z,1010.73
2018-05-14T11:13:25.837Z,1010.79
2018-05-14T11:14:25.873Z,1010.81
2018-05-14T11:15:25.842Z,1010.80
2018-05-14T11:16:26.000Z,1010.76
2018-05-14T11:17:25.847Z,1010.78
2018-05-14T11:18:25.916Z,1010.74
2018-05-14T11:19:25.854Z,1010.76
2018-05-14T11:20:25.946Z,1010.75
2018-05-14T11:21:25.862Z,1010.82
2018-05-14T11:22:25.879Z,1010.77
2018-05-14T11:23:25.868Z,1010.81
2018-05-14T11:24:25.876Z,1010.86
2018-05-14T11:25:26.000Z,1010.78
2018-05-14T11:26:25.879Z,1010.98
2018-05-14T11:27:25.885Z,1010.87
2018-05-14T11:28:25.889Z,1010.93
2018-05-14T11:29:25.913Z,1010.84
2018-05-14T11:30:25.902Z,1010.81
2018-05-14T11:31:25.898Z,1010.87
2018-05-14T11:32:25.900Z,1010.88
2018-05-14T11:33:25.983Z,1010.84
2018-05-14T11:34:25.909Z,1010.80
2018-05-14T11:35:25.927Z,1010.70
2018-05-14T11:36:25.911Z,1010.87
2018-05-14T11:37:25.920Z,1010.91
2018-05-14T11:38:25.924Z,1010.83
2018-05-14T11:39:25.997Z,1010.80
2018-05-14T11:40:26.063Z,1010.88
2018-05-14T11:41:25.932Z,1010.85
2018-05-14T11:42:25.936Z,1010.76
2018-05-14T11:43:25.938Z,1010.96
2018-05-14T11:44:26.004Z,1010.85
2018-05-14T11:45:25.968Z,1010.87
2018-05-14T11:46:25.951Z,1010.86
2018-05-14T11:47:25.952Z,1010.86
2018-05-14T11:48:25.957Z,1010.86
2018-05-14T11:49:25.961Z,1010.92
2018-05-14T11:50:25.968Z,1010.94
2018-05-14T11:51:25.967Z,1010.88
2018-05-14T11:52:26.259Z,1010.79
2018-05-14T11:53:25.974Z,1010.93
2018-05-14T11:54:25.978Z,1010.83
2018-05-14T11:55:25.986Z,1010.96
2018-05-14T11:56:25.983Z,1010.88
2018-05-14T11:57:25.986Z,1010.89
2018-05-14T11:58:25.995Z,1010.88
2018-05-14T11:59:25.993Z,1010.85
2018-05-14T12:00:25.996Z,1010.82
2018-05-14T12:01:26.003Z,1010.89
2018-05-14T12:02:26.004Z,1010.79
2018-05-14T12:03:26.012Z,1010.84
2018-05-14T12:04:26.011Z,1010.83
2018-05-14T12:05:26.020Z,1010.88